sensor_id;sensor_type;location;lat;lon;timestamp;P1;durP1;ratioP1;P2;durP2;ratioP2
39864;SDS011;25538;48.392;9.976;2022-08-03T00:00:51;5.20;;;4.70;;
39864;SDS011;25538;48.392;9.976;2022-08-03T00:03:17;6.30;;;5.90;;
39864;SDS011;25538;48.392;9.976;2022-08-03T00:05:43;5.40;;;5.00;;
39864;SDS011;25538;48.392;9.976;2022-08-03T00:08:09;5.47;;;4.97;;
39864;SDS011;25538;48.392;9.976;2022-08-03T00:10:35;5.20;;;4.70;;
39864;SDS011;25538;48.392;9.976;2022-08-03T00:13:02;5.17;;;4.77;;
39864;SDS011;25538;48.392;9.976;2022-08-03T00:15:28;8.50;;;5.90;;
39864;SDS011;25538;48.392;9.976;2022-08-03T00:17:54;7.87;;;5.07;;
39864;SDS011;25538;48.392;9.976;2022-08-03T00:20:20;5.53;;;5.03;;
39864;SDS011;25538;48.392;9.976;2022-08-03T00:22:46;5.53;;;5.23;;
39864;SDS011;25538;48.392;9.976;2022-08-03T00:25:13;5.23;;;4.83;;
39864;SDS011;25538;48.392;9.976;2022-08-03T00:27:39;5.40;;;4.90;;
39864;SDS011;25538;48.392;9.976;2022-08-03T00:30:05;5.40;;;4.90;;
39864;SDS011;25538;48.392;9.976;2022-08-03T00:32:31;5.30;;;5.00;;
39864;SDS011;25538;48.392;9.976;2022-08-03T00:34:57;5.83;;;5.47;;
39864;SDS011;25538;48.392;9.976;2022-08-03T00:37:23;5.57;;;5.10;;
39864;SDS011;25538;48.392;9.976;2022-08-03T00:39:49;5.30;;;4.90;;
39864;SDS011;25538;48.392;9.976;2022-08-03T00:42:15;5.97;;;5.57;;
39864;SDS011;25538;48.392;9.976;2022-08-03T00:44:41;5.47;;;5.17;;
39864;SDS011;25538;48.392;9.976;2022-08-03T00:47:10;5.30;;;5.00;;
39864;SDS011;25538;48.392;9.976;2022-08-03T00:49:37;4.93;;;4.53;;
39864;SDS011;25538;48.392;9.976;2022-08-03T00:52:04;5.97;;;5.40;;
39864;SDS011;25538;48.392;9.976;2022-08-03T00:54:33;5.93;;;5.47;;
39864;SDS011;25538;48.392;9.976;2022-08-03T00:57:00;6.23;;;5.83;;
39864;SDS011;25538;48.392;9.976;2022-08-03T00:59:26;5.90;;;5.50;;
39864;SDS011;25538;48.392;9.976;2022-08-03T01:01:52;6.00;;;4.77;;
39864;SDS011;25538;48.392;9.976;2022-08-03T01:04:18;5.93;;;5.53;;
39864;SDS011;25538;48.392;9.976;2022-08-03T01:12:27;6.20;;;5.80;;
39864;SDS011;25538;48.392;9.976;2022-08-03T01:17:48;6.40;;;5.60;;
39864;SDS011;25538;48.392;9.976;2022-08-03T01:20:20;6.23;;;5.73;;
39864;SDS011;25538;48.392;9.976;2022-08-03T01:22:59;5.83;;;5.43;;
39864;SDS011;25538;48.392;9.976;2022-08-03T01:31:03;6.40;;;5.20;;
39864;SDS011;25538;48.392;9.976;2022-08-03T01:33:39;5.63;;;5.17;;
39864;SDS011;25538;48.392;9.976;2022-08-03T01:36:21;5.70;;;5.30;;
39864;SDS011;25538;48.392;9.976;2022-08-03T01:38:51;6.30;;;5.90;;
39864;SDS011;25538;48.392;9.976;2022-08-03T01:41:29;9.00;;;5.57;;
39864;SDS011;25538;48.392;9.976;2022-08-03T01:43:57;6.70;;;6.20;;
39864;SDS011;25538;48.392;9.976;2022-08-03T01:46:26;6.00;;;5.50;;
39864;SDS011;25538;48.392;9.976;2022-08-03T01:48:54;6.20;;;5.80;;
39864;SDS011;25538;48.392;9.976;2022-08-03T01:51:22;6.30;;;5.90;;
39864;SDS011;25538;48.392;9.976;2022-08-03T01:53:48;6.17;;;5.67;;
39864;SDS011;25538;48.392;9.976;2022-08-03T01:56:16;6.30;;;5.90;;
39864;SDS011;25538;48.392;9.976;2022-08-03T01:58:44;5.60;;;5.20;;
39864;SDS011;25538;48.392;9.976;2022-08-03T02:01:12;6.97;;;6.17;;
39864;SDS011;25538;48.392;9.976;2022-08-03T02:03:40;6.53;;;6.00;;
39864;SDS011;25538;48.392;9.976;2022-08-03T02:06:09;6.67;;;6.10;;
39864;SDS011;25538;48.392;9.976;2022-08-03T02:08:40;6.63;;;6.13;;
39864;SDS011;25538;48.392;9.976;2022-08-03T02:11:09;7.13;;;6.53;;
39864;SDS011;25538;48.392;9.976;2022-08-03T02:13:36;6.70;;;6.20;;
39864;SDS011;25538;48.392;9.976;2022-08-03T02:16:03;6.68;;;6.20;;
39864;SDS011;25538;48.392;9.976;2022-08-03T02:18:33;6.27;;;5.80;;
39864;SDS011;25538;48.392;9.976;2022-08-03T02:21:00;6.70;;;5.60;;
39864;SDS011;25538;48.392;9.976;2022-08-03T02:23:28;5.55;;;5.15;;
39864;SDS011;25538;48.392;9.976;2022-08-03T02:26:00;6.37;;;5.73;;
39864;SDS011;25538;48.392;9.976;2022-08-03T02:28:31;6.30;;;5.80;;
39864;SDS011;25538;48.392;9.976;2022-08-03T02:31:01;7.93;;;6.07;;
39864;SDS011;25538;48.392;9.976;2022-08-03T02:33:38;6.33;;;5.73;;
39864;SDS011;25538;48.392;9.976;2022-08-03T02:36:08;6.10;;;5.70;;
39864;SDS011;25538;48.392;9.976;2022-08-03T02:38:38;6.00;;;5.50;;
39864;SDS011;25538;48.392;9.976;2022-08-03T02:41:07;6.43;;;6.00;;
39864;SDS011;25538;48.392;9.976;2022-08-03T02:43:39;5.93;;;5.43;;
39864;SDS011;25538;48.392;9.976;2022-08-03T02:46:08;6.70;;;6.00;;
39864;SDS011;25538;48.392;9.976;2022-08-03T02:48:37;7.17;;;6.67;;
39864;SDS011;25538;48.392;9.976;2022-08-03T02:51:06;6.95;;;6.35;;
39864;SDS011;25538;48.392;9.976;2022-08-03T02:53:32;8.68;;;7.50;;
39864;SDS011;25538;48.392;9.976;2022-08-03T02:55:59;7.45;;;6.78;;
39864;SDS011;25538;48.392;9.976;2022-08-03T02:58:28;8.25;;;6.90;;
39864;SDS011;25538;48.392;9.976;2022-08-03T03:00:55;6.93;;;6.45;;
39864;SDS011;25538;48.392;9.976;2022-08-03T03:03:22;7.05;;;6.43;;
39864;SDS011;25538;48.392;9.976;2022-08-03T03:05:49;7.22;;;6.60;;
39864;SDS011;25538;48.392;9.976;2022-08-03T03:08:17;7.45;;;6.95;;
39864;SDS011;25538;48.392;9.976;2022-08-03T03:10:44;6.85;;;6.35;;
39864;SDS011;25538;48.392;9.976;2022-08-03T03:13:12;5.68;;;5.35;;
39864;SDS011;25538;48.392;9.976;2022-08-03T03:15:39;6.40;;;5.82;;
39864;SDS011;25538;48.392;9.976;2022-08-03T03:18:07;6.10;;;5.70;;
39864;SDS011;25538;48.392;9.976;2022-08-03T03:20:35;6.55;;;6.05;;
39864;SDS011;25538;48.392;9.976;2022-08-03T03:23:02;7.40;;;6.30;;
39864;SDS011;25538;48.392;9.976;2022-08-03T03:25:30;6.00;;;5.55;;
39864;SDS011;25538;48.392;9.976;2022-08-03T03:27:57;6.47;;;6.07;;
39864;SDS011;25538;48.392;9.976;2022-08-03T03:30:24;6.77;;;5.63;;
39864;SDS011;25538;48.392;9.976;2022-08-03T03:32:51;7.85;;;7.25;;
39864;SDS011;25538;48.392;9.976;2022-08-03T03:35:17;7.07;;;6.50;;
39864;SDS011;25538;48.392;9.976;2022-08-03T03:37:43;5.72;;;5.20;;
39864;SDS011;25538;48.392;9.976;2022-08-03T03:40:09;6.23;;;5.73;;
39864;SDS011;25538;48.392;9.976;2022-08-03T03:42:36;6.22;;;5.72;;
39864;SDS011;25538;48.392;9.976;2022-08-03T03:45:03;6.30;;;5.90;;
39864;SDS011;25538;48.392;9.976;2022-08-03T03:47:30;6.45;;;5.97;;
39864;SDS011;25538;48.392;9.976;2022-08-03T03:49:56;5.72;;;5.32;;
39864;SDS011;25538;48.392;9.976;2022-08-03T03:52:22;6.32;;;5.75;;
39864;SDS011;25538;48.392;9.976;2022-08-03T03:54:48;6.50;;;6.10;;
39864;SDS011;25538;48.392;9.976;2022-08-03T03:57:14;5.57;;;5.18;;
39864;SDS011;25538;48.392;9.976;2022-08-03T03:59:41;5.83;;;5.50;;
39864;SDS011;25538;48.392;9.976;2022-08-03T04:02:08;6.53;;;5.72;;
39864;SDS011;25538;48.392;9.976;2022-08-03T04:04:35;5.97;;;5.57;;
39864;SDS011;25538;48.392;9.976;2022-08-03T04:07:22;6.25;;;5.70;;
39864;SDS011;25538;48.392;9.976;2022-08-03T04:10:15;6.00;;;5.70;;
39864;SDS011;25538;48.392;9.976;2022-08-03T04:13:06;6.65;;;6.20;;
39864;SDS011;25538;48.392;9.976;2022-08-03T04:15:34;5.90;;;5.50;;
39864;SDS011;25538;48.392;9.976;2022-08-03T04:18:02;5.70;;;5.30;;
39864;SDS011;25538;48.392;9.976;2022-08-03T04:20:29;6.10;;;5.70;;
39864;SDS011;25538;48.392;9.976;2022-08-03T04:22:57;6.63;;;6.15;;
39864;SDS011;25538;48.392;9.976;2022-08-03T04:25:25;7.43;;;5.90;;
39864;SDS011;25538;48.392;9.976;2022-08-03T04:27:55;6.57;;;5.97;;
39864;SDS011;25538;48.392;9.976;2022-08-03T04:30:25;7.30;;;6.70;;
39864;SDS011;25538;48.392;9.976;2022-08-03T04:32:54;6.57;;;5.90;;
39864;SDS011;25538;48.392;9.976;2022-08-03T04:35:22;7.03;;;6.43;;
39864;SDS011;25538;48.392;9.976;2022-08-03T04:37:49;6.50;;;5.90;;
39864;SDS011;25538;48.392;9.976;2022-08-03T04:40:18;6.40;;;5.90;;
39864;SDS011;25538;48.392;9.976;2022-08-03T04:42:49;10.32;;;7.40;;
39864;SDS011;25538;48.392;9.976;2022-08-03T04:45:20;6.55;;;6.05;;
39864;SDS011;25538;48.392;9.976;2022-08-03T04:47:46;7.27;;;6.43;;
39864;SDS011;25538;48.392;9.976;2022-08-03T04:50:14;8.00;;;7.30;;
39864;SDS011;25538;48.392;9.976;2022-08-03T04:52:40;7.75;;;6.82;;
39864;SDS011;25538;48.392;9.976;2022-08-03T04:55:07;6.32;;;5.35;;
39864;SDS011;25538;48.392;9.976;2022-08-03T04:57:33;6.55;;;6.05;;
39864;SDS011;25538;48.392;9.976;2022-08-03T04:59:59;5.97;;;5.40;;
39864;SDS011;25538;48.392;9.976;2022-08-03T05:02:25;10.80;;;6.03;;
39864;SDS011;25538;48.392;9.976;2022-08-03T05:04:51;8.30;;;7.10;;
39864;SDS011;25538;48.392;9.976;2022-08-03T05:07:17;9.87;;;8.27;;
39864;SDS011;25538;48.392;9.976;2022-08-03T05:09:43;7.80;;;7.20;;
39864;SDS011;25538;48.392;9.976;2022-08-03T05:12:10;5.73;;;5.33;;
39864;SDS011;25538;48.392;9.976;2022-08-03T05:14:36;7.33;;;6.63;;
39864;SDS011;25538;48.392;9.976;2022-08-03T05:17:06;7.30;;;6.60;;
39864;SDS011;25538;48.392;9.976;2022-08-03T05:19:34;6.13;;;5.63;;
39864;SDS011;25538;48.392;9.976;2022-08-03T05:22:00;6.83;;;6.13;;
39864;SDS011;25538;48.392;9.976;2022-08-03T05:24:25;6.87;;;6.37;;
39864;SDS011;25538;48.392;9.976;2022-08-03T05:26:52;6.63;;;5.90;;
39864;SDS011;25538;48.392;9.976;2022-08-03T05:29:17;7.33;;;5.60;;
39864;SDS011;25538;48.392;9.976;2022-08-03T05:31:43;5.67;;;5.13;;
39864;SDS011;25538;48.392;9.976;2022-08-03T05:34:09;7.90;;;5.60;;
39864;SDS011;25538;48.392;9.976;2022-08-03T05:36:35;6.17;;;5.77;;
39864;SDS011;25538;48.392;9.976;2022-08-03T05:39:01;6.90;;;6.30;;
39864;SDS011;25538;48.392;9.976;2022-08-03T05:41:27;6.53;;;6.03;;
39864;SDS011;25538;48.392;9.976;2022-08-03T05:43:53;6.30;;;5.80;;
39864;SDS011;25538;48.392;9.976;2022-08-03T05:46:20;7.63;;;7.00;;
39864;SDS011;25538;48.392;9.976;2022-08-03T05:48:47;6.60;;;6.00;;
39864;SDS011;25538;48.392;9.976;2022-08-03T05:51:13;7.40;;;6.70;;
39864;SDS011;25538;48.392;9.976;2022-08-03T05:53:39;6.70;;;5.87;;
39864;SDS011;25538;48.392;9.976;2022-08-03T05:56:06;6.87;;;6.30;;
39864;SDS011;25538;48.392;9.976;2022-08-03T05:58:32;7.57;;;7.07;;
39864;SDS011;25538;48.392;9.976;2022-08-03T06:00:58;7.17;;;6.30;;
39864;SDS011;25538;48.392;9.976;2022-08-03T06:03:24;7.50;;;5.80;;
39864;SDS011;25538;48.392;9.976;2022-08-03T06:05:50;9.33;;;7.10;;
39864;SDS011;25538;48.392;9.976;2022-08-03T06:08:18;8.30;;;7.60;;
39864;SDS011;25538;48.392;9.976;2022-08-03T06:10:44;6.73;;;6.10;;
39864;SDS011;25538;48.392;9.976;2022-08-03T06:13:10;6.17;;;5.50;;
39864;SDS011;25538;48.392;9.976;2022-08-03T06:15:36;6.10;;;5.60;;
39864;SDS011;25538;48.392;9.976;2022-08-03T06:18:02;6.17;;;5.57;;
39864;SDS011;25538;48.392;9.976;2022-08-03T06:20:28;6.00;;;5.43;;
39864;SDS011;25538;48.392;9.976;2022-08-03T06:22:54;7.90;;;5.80;;
39864;SDS011;25538;48.392;9.976;2022-08-03T06:25:20;6.50;;;5.23;;
39864;SDS011;25538;48.392;9.976;2022-08-03T06:27:46;6.00;;;5.50;;
39864;SDS011;25538;48.392;9.976;2022-08-03T06:30:12;5.33;;;4.97;;
39864;SDS011;25538;48.392;9.976;2022-08-03T06:32:39;9.33;;;7.10;;
39864;SDS011;25538;48.392;9.976;2022-08-03T06:35:05;7.03;;;5.63;;
39864;SDS011;25538;48.392;9.976;2022-08-03T06:37:42;11.13;;;6.00;;
39864;SDS011;25538;48.392;9.976;2022-08-03T06:40:10;6.50;;;5.90;;
39864;SDS011;25538;48.392;9.976;2022-08-03T06:42:37;7.00;;;6.30;;
39864;SDS011;25538;48.392;9.976;2022-08-03T06:45:04;10.00;;;5.70;;
39864;SDS011;25538;48.392;9.976;2022-08-03T06:47:31;6.63;;;6.03;;
39864;SDS011;25538;48.392;9.976;2022-08-03T06:49:57;6.60;;;6.10;;
39864;SDS011;25538;48.392;9.976;2022-08-03T06:52:23;6.13;;;5.73;;
39864;SDS011;25538;48.392;9.976;2022-08-03T06:54:49;6.10;;;5.67;;
39864;SDS011;25538;48.392;9.976;2022-08-03T06:57:15;5.80;;;5.40;;
39864;SDS011;25538;48.392;9.976;2022-08-03T06:59:43;5.40;;;4.90;;
39864;SDS011;25538;48.392;9.976;2022-08-03T07:02:09;5.93;;;5.50;;
39864;SDS011;25538;48.392;9.976;2022-08-03T07:04:36;6.67;;;6.17;;
39864;SDS011;25538;48.392;9.976;2022-08-03T07:07:02;6.30;;;5.40;;
39864;SDS011;25538;48.392;9.976;2022-08-03T07:09:28;6.10;;;5.60;;
39864;SDS011;25538;48.392;9.976;2022-08-03T07:11:54;6.10;;;5.60;;
39864;SDS011;25538;48.392;9.976;2022-08-03T07:14:21;5.57;;;5.03;;
39864;SDS011;25538;48.392;9.976;2022-08-03T07:16:47;5.60;;;5.10;;
39864;SDS011;25538;48.392;9.976;2022-08-03T07:19:13;4.67;;;4.37;;
39864;SDS011;25538;48.392;9.976;2022-08-03T07:21:39;4.60;;;4.30;;
39864;SDS011;25538;48.392;9.976;2022-08-03T07:24:05;3.90;;;3.60;;
39864;SDS011;25538;48.392;9.976;2022-08-03T07:26:31;4.70;;;4.03;;
39864;SDS011;25538;48.392;9.976;2022-08-03T07:28:57;3.90;;;3.70;;
39864;SDS011;25538;48.392;9.976;2022-08-03T07:31:25;3.77;;;3.47;;
39864;SDS011;25538;48.392;9.976;2022-08-03T07:33:51;3.70;;;3.40;;
39864;SDS011;25538;48.392;9.976;2022-08-03T07:36:17;3.70;;;3.40;;
39864;SDS011;25538;48.392;9.976;2022-08-03T07:38:43;3.83;;;3.50;;
39864;SDS011;25538;48.392;9.976;2022-08-03T07:41:09;3.90;;;3.70;;
39864;SDS011;25538;48.392;9.976;2022-08-03T07:43:34;5.50;;;5.10;;
39864;SDS011;25538;48.392;9.976;2022-08-03T07:46:00;3.20;;;2.83;;
39864;SDS011;25538;48.392;9.976;2022-08-03T07:48:26;3.10;;;3.00;;
39864;SDS011;25538;48.392;9.976;2022-08-03T07:50:52;3.90;;;3.13;;
39864;SDS011;25538;48.392;9.976;2022-08-03T07:53:18;3.80;;;3.50;;
39864;SDS011;25538;48.392;9.976;2022-08-03T07:55:44;3.50;;;3.20;;
39864;SDS011;25538;48.392;9.976;2022-08-03T07:58:10;3.70;;;3.23;;
39864;SDS011;25538;48.392;9.976;2022-08-03T08:00:40;3.70;;;3.50;;
39864;SDS011;25538;48.392;9.976;2022-08-03T08:03:06;4.20;;;2.70;;
39864;SDS011;25538;48.392;9.976;2022-08-03T08:05:32;5.63;;;3.40;;
39864;SDS011;25538;48.392;9.976;2022-08-03T08:08:02;4.43;;;3.40;;
39864;SDS011;25538;48.392;9.976;2022-08-03T08:10:28;5.17;;;3.30;;
39864;SDS011;25538;48.392;9.976;2022-08-03T08:12:55;3.40;;;3.20;;
39864;SDS011;25538;48.392;9.976;2022-08-03T08:15:21;4.10;;;3.70;;
39864;SDS011;25538;48.392;9.976;2022-08-03T08:17:52;3.10;;;2.90;;
39864;SDS011;25538;48.392;9.976;2022-08-03T08:20:20;3.60;;;3.30;;
39864;SDS011;25538;48.392;9.976;2022-08-03T08:22:48;3.20;;;3.00;;
39864;SDS011;25538;48.392;9.976;2022-08-03T08:25:14;4.37;;;2.80;;
39864;SDS011;25538;48.392;9.976;2022-08-03T08:27:40;3.10;;;2.90;;
39864;SDS011;25538;48.392;9.976;2022-08-03T08:30:11;3.30;;;3.00;;
39864;SDS011;25538;48.392;9.976;2022-08-03T08:32:37;3.10;;;2.80;;
39864;SDS011;25538;48.392;9.976;2022-08-03T08:35:04;3.13;;;2.93;;
39864;SDS011;25538;48.392;9.976;2022-08-03T08:37:31;3.10;;;2.70;;
39864;SDS011;25538;48.392;9.976;2022-08-03T08:39:57;2.50;;;2.30;;
39864;SDS011;25538;48.392;9.976;2022-08-03T08:42:23;3.03;;;2.83;;
39864;SDS011;25538;48.392;9.976;2022-08-03T08:44:49;2.80;;;2.60;;
39864;SDS011;25538;48.392;9.976;2022-08-03T08:47:17;3.17;;;2.87;;
39864;SDS011;25538;48.392;9.976;2022-08-03T08:49:43;2.50;;;2.30;;
39864;SDS011;25538;48.392;9.976;2022-08-03T08:52:12;2.63;;;2.43;;
39864;SDS011;25538;48.392;9.976;2022-08-03T08:54:40;2.53;;;2.33;;
39864;SDS011;25538;48.392;9.976;2022-08-03T08:57:07;2.20;;;2.10;;
39864;SDS011;25538;48.392;9.976;2022-08-03T08:59:34;2.63;;;2.53;;
39864;SDS011;25538;48.392;9.976;2022-08-03T09:02:01;2.23;;;2.13;;
39864;SDS011;25538;48.392;9.976;2022-08-03T09:04:28;2.53;;;2.43;;
39864;SDS011;25538;48.392;9.976;2022-08-03T09:06:55;2.93;;;2.40;;
39864;SDS011;25538;48.392;9.976;2022-08-03T09:09:20;2.50;;;2.40;;
39864;SDS011;25538;48.392;9.976;2022-08-03T09:11:47;2.27;;;2.17;;
39864;SDS011;25538;48.392;9.976;2022-08-03T09:14:13;3.00;;;2.33;;
39864;SDS011;25538;48.392;9.976;2022-08-03T09:16:56;2.43;;;2.33;;
39864;SDS011;25538;48.392;9.976;2022-08-03T09:19:26;2.10;;;2.00;;
39864;SDS011;25538;48.392;9.976;2022-08-03T09:22:13;2.00;;;1.83;;
39864;SDS011;25538;48.392;9.976;2022-08-03T09:24:57;2.67;;;2.57;;
39864;SDS011;25538;48.392;9.976;2022-08-03T09:27:24;2.33;;;2.13;;
39864;SDS011;25538;48.392;9.976;2022-08-03T09:29:51;1.80;;;1.70;;
39864;SDS011;25538;48.392;9.976;2022-08-03T09:32:22;2.30;;;1.80;;
39864;SDS011;25538;48.392;9.976;2022-08-03T09:34:49;2.57;;;2.47;;
39864;SDS011;25538;48.392;9.976;2022-08-03T09:37:17;2.00;;;1.90;;
39864;SDS011;25538;48.392;9.976;2022-08-03T09:39:45;3.23;;;2.30;;
39864;SDS011;25538;48.392;9.976;2022-08-03T09:42:15;2.40;;;2.00;;
39864;SDS011;25538;48.392;9.976;2022-08-03T09:44:43;2.27;;;2.03;;
39864;SDS011;25538;48.392;9.976;2022-08-03T09:47:11;3.37;;;2.20;;
39864;SDS011;25538;48.392;9.976;2022-08-03T09:49:39;2.03;;;1.93;;
39864;SDS011;25538;48.392;9.976;2022-08-03T09:52:17;1.87;;;1.80;;
39864;SDS011;25538;48.392;9.976;2022-08-03T09:54:50;1.77;;;1.67;;
39864;SDS011;25538;48.392;9.976;2022-08-03T09:57:20;1.93;;;1.83;;
39864;SDS011;25538;48.392;9.976;2022-08-03T09:59:48;1.83;;;1.73;;
39864;SDS011;25538;48.392;9.976;2022-08-03T10:02:21;2.10;;;1.57;;
39864;SDS011;25538;48.392;9.976;2022-08-03T10:04:49;1.60;;;1.50;;
39864;SDS011;25538;48.392;9.976;2022-08-03T10:07:17;1.40;;;1.30;;
39864;SDS011;25538;48.392;9.976;2022-08-03T10:12:21;2.40;;;1.60;;
39864;SDS011;25538;48.392;9.976;2022-08-03T10:14:48;2.50;;;2.07;;
39864;SDS011;25538;48.392;9.976;2022-08-03T10:17:14;1.50;;;1.50;;
39864;SDS011;25538;48.392;9.976;2022-08-03T10:19:40;1.77;;;1.67;;
39864;SDS011;25538;48.392;9.976;2022-08-03T10:22:09;3.40;;;1.50;;
39864;SDS011;25538;48.392;9.976;2022-08-03T10:24:58;1.67;;;1.67;;
39864;SDS011;25538;48.392;9.976;2022-08-03T10:27:31;1.63;;;1.53;;
39864;SDS011;25538;48.392;9.976;2022-08-03T10:30:02;1.80;;;1.70;;
39864;SDS011;25538;48.392;9.976;2022-08-03T10:32:33;1.70;;;1.63;;
39864;SDS011;25538;48.392;9.976;2022-08-03T10:35:05;1.63;;;1.53;;
39864;SDS011;25538;48.392;9.976;2022-08-03T10:37:44;3.00;;;1.57;;
39864;SDS011;25538;48.392;9.976;2022-08-03T10:40:16;1.47;;;1.13;;
39864;SDS011;25538;48.392;9.976;2022-08-03T10:42:45;1.40;;;1.30;;
39864;SDS011;25538;48.392;9.976;2022-08-03T10:45:14;1.33;;;1.33;;
39864;SDS011;25538;48.392;9.976;2022-08-03T10:47:47;1.30;;;1.20;;
39864;SDS011;25538;48.392;9.976;2022-08-03T10:50:15;0.97;;;0.97;;
39864;SDS011;25538;48.392;9.976;2022-08-03T10:55:34;1.05;;;1.05;;
39864;SDS011;25538;48.392;9.976;2022-08-03T11:01:03;1.33;;;1.23;;
39864;SDS011;25538;48.392;9.976;2022-08-03T11:03:30;1.27;;;1.27;;
39864;SDS011;25538;48.392;9.976;2022-08-03T11:08:43;1.40;;;1.35;;
39864;SDS011;25538;48.392;9.976;2022-08-03T11:16:24;1.67;;;1.25;;
39864;SDS011;25538;48.392;9.976;2022-08-03T11:18:58;1.40;;;1.08;;
39864;SDS011;25538;48.392;9.976;2022-08-03T11:40:34;1.02;;;1.02;;
39864;SDS011;25538;48.392;9.976;2022-08-03T11:48:35;1.13;;;1.13;;
39864;SDS011;25538;48.392;9.976;2022-08-03T11:51:04;1.60;;;1.48;;
39864;SDS011;25538;48.392;9.976;2022-08-03T11:53:31;1.10;;;1.10;;
39864;SDS011;25538;48.392;9.976;2022-08-03T11:55:58;1.23;;;1.23;;
39864;SDS011;25538;48.392;9.976;2022-08-03T11:58:25;1.85;;;1.17;;
39864;SDS011;25538;48.392;9.976;2022-08-03T12:00:52;1.58;;;1.58;;
39864;SDS011;25538;48.392;9.976;2022-08-03T12:03:30;1.10;;;1.10;;
39864;SDS011;25538;48.392;9.976;2022-08-03T12:05:57;1.52;;;1.40;;
39864;SDS011;25538;48.392;9.976;2022-08-03T12:10:52;1.25;;;1.25;;
39864;SDS011;25538;48.392;9.976;2022-08-03T12:13:20;1.20;;;1.20;;
39864;SDS011;25538;48.392;9.976;2022-08-03T12:15:51;1.38;;;1.17;;
39864;SDS011;25538;48.392;9.976;2022-08-03T12:18:19;1.45;;;0.98;;
39864;SDS011;25538;48.392;9.976;2022-08-03T12:20:47;1.20;;;1.20;;
39864;SDS011;25538;48.392;9.976;2022-08-03T12:23:14;1.05;;;1.05;;
39864;SDS011;25538;48.392;9.976;2022-08-03T12:25:41;1.30;;;1.20;;
39864;SDS011;25538;48.392;9.976;2022-08-03T12:28:09;1.15;;;1.15;;
39864;SDS011;25538;48.392;9.976;2022-08-03T12:30:38;1.30;;;1.20;;
39864;SDS011;25538;48.392;9.976;2022-08-03T12:33:11;1.30;;;1.30;;
39864;SDS011;25538;48.392;9.976;2022-08-03T12:35:38;1.10;;;1.10;;
39864;SDS011;25538;48.392;9.976;2022-08-03T12:38:04;1.45;;;1.42;;
39864;SDS011;25538;48.392;9.976;2022-08-03T12:40:30;1.38;;;1.38;;
39864;SDS011;25538;48.392;9.976;2022-08-03T12:42:56;1.23;;;1.20;;
39864;SDS011;25538;48.392;9.976;2022-08-03T12:45:26;1.48;;;1.48;;
39864;SDS011;25538;48.392;9.976;2022-08-03T12:47:57;1.15;;;1.15;;
39864;SDS011;25538;48.392;9.976;2022-08-03T12:52:53;1.23;;;1.23;;
39864;SDS011;25538;48.392;9.976;2022-08-03T12:55:20;2.33;;;1.15;;
39864;SDS011;25538;48.392;9.976;2022-08-03T12:57:47;1.95;;;1.10;;
39864;SDS011;25538;48.392;9.976;2022-08-03T13:00:14;1.10;;;1.10;;
39864;SDS011;25538;48.392;9.976;2022-08-03T13:02:42;1.23;;;1.23;;
39864;SDS011;25538;48.392;9.976;2022-08-03T13:05:12;1.25;;;1.25;;
39864;SDS011;25538;48.392;9.976;2022-08-03T13:07:40;1.00;;;1.00;;
39864;SDS011;25538;48.392;9.976;2022-08-03T13:10:07;1.15;;;1.15;;
39864;SDS011;25538;48.392;9.976;2022-08-03T13:12:45;2.05;;;1.95;;
39864;SDS011;25538;48.392;9.976;2022-08-03T13:15:12;1.85;;;1.00;;
39864;SDS011;25538;48.392;9.976;2022-08-03T13:17:39;1.65;;;1.58;;
39864;SDS011;25538;48.392;9.976;2022-08-03T13:20:05;1.60;;;1.60;;
39864;SDS011;25538;48.392;9.976;2022-08-03T13:22:31;1.10;;;1.10;;
39864;SDS011;25538;48.392;9.976;2022-08-03T13:24:58;1.40;;;1.30;;
39864;SDS011;25538;48.392;9.976;2022-08-03T13:27:29;1.43;;;1.33;;
39864;SDS011;25538;48.392;9.976;2022-08-03T13:29:56;1.53;;;1.43;;
39864;SDS011;25538;48.392;9.976;2022-08-03T13:32:22;1.37;;;1.37;;
39864;SDS011;25538;48.392;9.976;2022-08-03T13:34:48;1.58;;;1.48;;
39864;SDS011;25538;48.392;9.976;2022-08-03T13:37:14;1.70;;;1.60;;
39864;SDS011;25538;48.392;9.976;2022-08-03T13:39:41;1.38;;;1.27;;
39864;SDS011;25538;48.392;9.976;2022-08-03T13:42:07;1.35;;;1.30;;
39864;SDS011;25538;48.392;9.976;2022-08-03T13:44:33;1.20;;;1.20;;
39864;SDS011;25538;48.392;9.976;2022-08-03T13:47:01;1.98;;;1.88;;
39864;SDS011;25538;48.392;9.976;2022-08-03T13:49:28;2.53;;;1.30;;
39864;SDS011;25538;48.392;9.976;2022-08-03T13:51:54;1.57;;;1.47;;
39864;SDS011;25538;48.392;9.976;2022-08-03T13:54:21;1.90;;;1.80;;
39864;SDS011;25538;48.392;9.976;2022-08-03T13:56:47;1.67;;;1.52;;
39864;SDS011;25538;48.392;9.976;2022-08-03T13:59:17;1.10;;;1.10;;
39864;SDS011;25538;48.392;9.976;2022-08-03T14:01:45;1.40;;;1.40;;
39864;SDS011;25538;48.392;9.976;2022-08-03T14:04:11;1.20;;;1.20;;
39864;SDS011;25538;48.392;9.976;2022-08-03T14:06:37;1.30;;;1.20;;
39864;SDS011;25538;48.392;9.976;2022-08-03T14:09:03;1.45;;;1.42;;
39864;SDS011;25538;48.392;9.976;2022-08-03T14:11:29;1.48;;;1.38;;
39864;SDS011;25538;48.392;9.976;2022-08-03T14:13:55;1.15;;;1.15;;
39864;SDS011;25538;48.392;9.976;2022-08-03T14:16:21;1.67;;;1.60;;
39864;SDS011;25538;48.392;9.976;2022-08-03T14:18:47;1.15;;;1.15;;
39864;SDS011;25538;48.392;9.976;2022-08-03T14:21:13;1.33;;;1.25;;
39864;SDS011;25538;48.392;9.976;2022-08-03T14:23:39;1.00;;;1.00;;
39864;SDS011;25538;48.392;9.976;2022-08-03T14:26:05;1.60;;;1.50;;
39864;SDS011;25538;48.392;9.976;2022-08-03T14:28:31;1.25;;;1.25;;
39864;SDS011;25538;48.392;9.976;2022-08-03T14:30:58;1.23;;;1.23;;
39864;SDS011;25538;48.392;9.976;2022-08-03T14:33:24;1.20;;;1.20;;
39864;SDS011;25538;48.392;9.976;2022-08-03T14:35:50;1.50;;;1.40;;
39864;SDS011;25538;48.392;9.976;2022-08-03T14:38:16;2.60;;;1.50;;
39864;SDS011;25538;48.392;9.976;2022-08-03T14:40:42;1.00;;;1.00;;
39864;SDS011;25538;48.392;9.976;2022-08-03T14:43:09;1.40;;;1.40;;
39864;SDS011;25538;48.392;9.976;2022-08-03T14:45:35;1.60;;;1.50;;
39864;SDS011;25538;48.392;9.976;2022-08-03T14:48:01;3.03;;;1.42;;
39864;SDS011;25538;48.392;9.976;2022-08-03T14:50:29;1.35;;;1.10;;
39864;SDS011;25538;48.392;9.976;2022-08-03T14:52:55;2.72;;;1.30;;
39864;SDS011;25538;48.392;9.976;2022-08-03T14:55:21;1.20;;;1.20;;
39864;SDS011;25538;48.392;9.976;2022-08-03T14:57:47;0.90;;;0.90;;
39864;SDS011;25538;48.392;9.976;2022-08-03T15:00:13;1.40;;;1.30;;
39864;SDS011;25538;48.392;9.976;2022-08-03T15:02:39;2.80;;;1.30;;
39864;SDS011;25538;48.392;9.976;2022-08-03T15:05:05;1.37;;;1.30;;
39864;SDS011;25538;48.392;9.976;2022-08-03T15:07:32;1.00;;;1.00;;
39864;SDS011;25538;48.392;9.976;2022-08-03T15:09:58;1.70;;;1.60;;
39864;SDS011;25538;48.392;9.976;2022-08-03T15:12:24;1.33;;;1.33;;
39864;SDS011;25538;48.392;9.976;2022-08-03T15:14:50;1.80;;;1.70;;
39864;SDS011;25538;48.392;9.976;2022-08-03T15:17:16;1.53;;;1.50;;
39864;SDS011;25538;48.392;9.976;2022-08-03T15:19:42;1.50;;;1.50;;
39864;SDS011;25538;48.392;9.976;2022-08-03T15:22:08;1.73;;;1.63;;
39864;SDS011;25538;48.392;9.976;2022-08-03T15:24:33;1.50;;;1.40;;
39864;SDS011;25538;48.392;9.976;2022-08-03T15:26:59;1.73;;;1.63;;
39864;SDS011;25538;48.392;9.976;2022-08-03T15:29:26;1.40;;;1.30;;
39864;SDS011;25538;48.392;9.976;2022-08-03T15:31:52;1.83;;;1.73;;
39864;SDS011;25538;48.392;9.976;2022-08-03T15:34:17;2.70;;;1.67;;
39864;SDS011;25538;48.392;9.976;2022-08-03T15:36:43;1.70;;;1.60;;
39864;SDS011;25538;48.392;9.976;2022-08-03T15:39:09;1.90;;;1.80;;
39864;SDS011;25538;48.392;9.976;2022-08-03T15:41:35;1.40;;;1.40;;
39864;SDS011;25538;48.392;9.976;2022-08-03T15:44:01;1.87;;;1.77;;
39864;SDS011;25538;48.392;9.976;2022-08-03T15:46:27;1.80;;;1.70;;
39864;SDS011;25538;48.392;9.976;2022-08-03T15:48:53;1.77;;;1.70;;
39864;SDS011;25538;48.392;9.976;2022-08-03T15:51:19;2.73;;;2.07;;